WAOO

Banjarmasin/Syamsudin Noor Airport

Airport
ICAO code
WAOO
IATA Code
BDJ
Summary
ICAO Region
APAC
ICAO Territory
Location

Banjarbaru, Kalimantan Selatan

Serving
Banjarmasin
Elevation
66 ft
Coordinates
3° 26' 32" S , 114° 45' 45" E
Metar
Observation
WAOO 091830Z AUTO 13001KT 9999 BKN190 25/24 Q1007
Station
SYAMSUDIN NOOR
Date/Time
2022-12-09 18:30:00
Wind direction
130°
Wind speed
01 kts
Lowest cloud amount
broken clouds
Temperature
25°C
Dew point
24°C
Humidity
94%
QNH
1007 hPa
Weather condition
n/a

Airport map

Aerial View

SKYbrary Partners:

Safety knowledge contributed by: